createdAt,value
2023-01-18T00:00:40.353Z,4.78
2023-01-18T00:03:12.995Z,4.55
2023-01-18T00:05:43.817Z,4.32
2023-01-18T00:08:13.794Z,4.45
2023-01-18T00:10:42.766Z,4.10
2023-01-18T00:13:10.961Z,3.78
2023-01-18T00:15:39.725Z,3.65
2023-01-18T00:18:07.665Z,4.53
2023-01-18T00:20:36.244Z,4.20
2023-01-18T00:23:05.506Z,4.05
2023-01-18T00:25:33.427Z,4.43
2023-01-18T00:28:01.322Z,4.88
2023-01-18T00:30:29.726Z,4.47
2023-01-18T00:32:59.442Z,4.43
2023-01-18T00:35:27.748Z,5.03
2023-01-18T00:37:55.680Z,4.10
2023-01-18T00:40:25.858Z,4.80
2023-01-18T00:43:11.295Z,3.90
2023-01-18T00:45:40.934Z,5.05
2023-01-18T00:48:12.119Z,4.93
2023-01-18T00:50:40.043Z,5.40
2023-01-18T00:53:08.051Z,5.03
2023-01-18T00:55:37.441Z,4.38
2023-01-18T00:58:05.401Z,4.78
2023-01-18T01:00:33.762Z,5.45
2023-01-18T01:03:01.977Z,4.93
2023-01-18T01:05:47.334Z,5.40
2023-01-18T01:08:17.762Z,5.28
2023-01-18T01:10:48.626Z,4.25
2023-01-18T01:13:35.952Z,4.40
2023-01-18T01:16:24.684Z,3.65
2023-01-18T01:19:10.816Z,3.95
2023-01-18T01:21:57.118Z,2.85
2023-01-18T01:24:43.276Z,3.28
2023-01-18T01:27:13.733Z,2.90
2023-01-18T01:29:41.740Z,2.72
2023-01-18T01:32:09.904Z,2.40
2023-01-18T01:34:37.847Z,2.58
2023-01-18T01:37:06.460Z,1.67
2023-01-18T01:39:34.388Z,1.38
2023-01-18T01:42:02.436Z,1.70
2023-01-18T01:44:51.262Z,1.75
2023-01-18T01:47:27.821Z,1.25
2023-01-18T01:49:59.212Z,1.40
2023-01-18T01:52:30.774Z,1.75
2023-01-18T01:55:02.092Z,1.30
2023-01-18T01:57:32.488Z,1.40
2023-01-18T02:00:05.233Z,1.42
2023-01-18T02:02:41.634Z,1.60
2023-01-18T02:05:13.490Z,1.50
2023-01-18T02:07:41.674Z,1.90
2023-01-18T02:10:10.592Z,1.75
2023-01-18T02:12:41.102Z,1.80
2023-01-18T02:15:11.676Z,1.70
2023-01-18T02:17:56.666Z,1.90
2023-01-18T02:20:44.471Z,1.42
2023-01-18T02:23:44.645Z,1.40
2023-01-18T02:26:50.229Z,1.00
2023-01-18T02:29:25.249Z,1.50
2023-01-18T02:32:11.194Z,0.98
2023-01-18T02:34:42.232Z,1.17
2023-01-18T02:37:17.765Z,1.10
2023-01-18T02:39:53.416Z,1.30
2023-01-18T02:42:40.999Z,0.88
2023-01-18T02:45:35.804Z,1.02
2023-01-18T02:48:04.960Z,0.80
2023-01-18T02:50:32.898Z,0.80
2023-01-18T02:53:01.068Z,0.88
2023-01-18T02:55:44.926Z,0.60
2023-01-18T02:58:18.140Z,0.70
2023-01-18T03:00:53.940Z,0.80
2023-01-18T03:03:23.966Z,0.70
2023-01-18T03:05:54.521Z,0.82
2023-01-18T03:08:26.139Z,0.50
2023-01-18T03:11:01.045Z,0.65
2023-01-18T03:13:54.738Z,0.70
2023-01-18T03:16:27.754Z,0.50
2023-01-18T03:19:01.477Z,0.70
2023-01-18T03:21:42.657Z,0.60
2023-01-18T03:24:11.450Z,0.52
2023-01-18T03:26:43.295Z,0.68
2023-01-18T03:29:31.489Z,0.85
2023-01-18T03:32:23.023Z,0.82
2023-01-18T03:34:55.709Z,0.70
2023-01-18T03:37:29.074Z,0.77
2023-01-18T03:40:01.677Z,0.88
2023-01-18T03:42:33.274Z,1.27
2023-01-18T03:45:09.598Z,2.33
2023-01-18T03:47:39.191Z,1.30
2023-01-18T03:50:07.651Z,1.05
2023-01-18T03:52:41.781Z,1.45
2023-01-18T03:55:16.985Z,1.50
2023-01-18T03:57:50.104Z,0.80
2023-01-18T04:00:19.292Z,0.77
2023-01-18T04:02:50.357Z,0.50
2023-01-18T04:05:19.110Z,0.68
2023-01-18T04:07:47.049Z,0.50
2023-01-18T04:10:15.057Z,0.65
2023-01-18T04:12:43.020Z,0.65
2023-01-18T04:15:11.846Z,0.68
2023-01-18T04:17:40.151Z,0.80
2023-01-18T04:20:10.983Z,0.60
2023-01-18T04:22:38.926Z,0.90
2023-01-18T04:25:07.695Z,0.80
2023-01-18T04:27:35.615Z,0.90
2023-01-18T04:30:06.208Z,1.20
2023-01-18T04:32:34.564Z,0.85
2023-01-18T04:35:02.512Z,0.73
2023-01-18T04:37:33.983Z,0.73
2023-01-18T04:40:05.324Z,0.75
2023-01-18T04:42:33.421Z,1.10
2023-01-18T04:45:01.581Z,1.10
2023-01-18T04:47:29.950Z,1.10
2023-01-18T04:49:58.352Z,1.95
2023-01-18T04:52:27.096Z,1.30
2023-01-18T04:54:56.406Z,1.70
2023-01-18T04:57:24.375Z,1.65
2023-01-18T04:59:52.473Z,2.08
2023-01-18T05:02:20.450Z,1.33
2023-01-18T05:04:48.428Z,1.92
2023-01-18T05:07:16.465Z,1.63
2023-01-18T05:09:46.659Z,2.70
2023-01-18T05:12:17.862Z,1.77
2023-01-18T05:14:45.783Z,2.47
2023-01-18T05:17:13.773Z,1.60
2023-01-18T05:19:42.046Z,1.83
2023-01-18T05:22:09.945Z,1.52
2023-01-18T05:24:37.863Z,1.35
2023-01-18T05:27:05.979Z,1.90
2023-01-18T05:29:35.440Z,1.60
2023-01-18T05:32:03.343Z,1.50
2023-01-18T05:34:31.284Z,1.40
2023-01-18T05:36:59.899Z,1.40
2023-01-18T05:39:27.775Z,1.95
2023-01-18T05:41:55.805Z,1.80
2023-01-18T05:44:23.825Z,1.80
2023-01-18T05:46:53.131Z,1.55
2023-01-18T05:49:21.199Z,1.77
2023-01-18T05:51:49.160Z,1.98
2023-01-18T05:54:17.114Z,1.50
2023-01-18T05:56:45.029Z,1.80
2023-01-18T05:59:14.455Z,1.52
2023-01-18T06:01:43.449Z,1.75
2023-01-18T06:04:12.756Z,1.80
2023-01-18T06:06:40.708Z,1.83
2023-01-18T06:09:08.816Z,1.98
2023-01-18T06:11:36.792Z,1.92
2023-01-18T06:14:04.730Z,2.80
2023-01-18T06:16:32.714Z,1.90
2023-01-18T06:19:00.634Z,3.72
2023-01-18T06:21:32.218Z,2.40
2023-01-18T06:24:00.193Z,2.15
2023-01-18T06:26:30.532Z,2.00
2023-01-18T06:28:58.674Z,1.85
2023-01-18T06:31:26.603Z,1.70
2023-01-18T06:33:54.612Z,1.58
2023-01-18T06:36:22.602Z,1.92
2023-01-18T06:38:51.887Z,1.58
2023-01-18T06:41:19.830Z,1.75
2023-01-18T06:43:47.730Z,2.00
2023-01-18T06:46:15.875Z,1.60
2023-01-18T06:48:43.816Z,1.85
2023-01-18T06:51:12.430Z,1.67
2023-01-18T06:53:40.722Z,1.55
2023-01-18T06:56:11.749Z,1.73
2023-01-18T06:58:39.738Z,2.65
2023-01-18T07:01:08.520Z,2.47
2023-01-18T07:03:36.542Z,2.20
2023-01-18T07:06:06.260Z,2.00
2023-01-18T07:08:36.433Z,1.95
2023-01-18T07:11:10.784Z,2.20
2023-01-18T07:13:40.199Z,1.80
2023-01-18T07:16:09.398Z,1.55
2023-01-18T07:18:37.371Z,1.80
2023-01-18T07:21:07.959Z,3.33
2023-01-18T07:23:37.302Z,3.78
2023-01-18T07:26:07.112Z,3.85
2023-01-18T07:28:37.478Z,2.67
2023-01-18T07:31:07.963Z,2.97
2023-01-18T07:33:38.944Z,3.50
2023-01-18T07:36:09.583Z,3.55
2023-01-18T07:38:38.592Z,5.65
2023-01-18T07:41:09.144Z,4.93
2023-01-18T07:43:38.972Z,4.30
2023-01-18T07:46:09.357Z,4.05
2023-01-18T07:48:38.997Z,3.50
2023-01-18T07:51:09.313Z,4.03
2023-01-18T07:53:38.959Z,3.40
2023-01-18T07:56:11.948Z,3.17
2023-01-18T07:58:44.203Z,3.13
2023-01-18T08:01:15.128Z,2.80
2023-01-18T08:03:44.063Z,2.70
2023-01-18T08:06:18.855Z,3.10
2023-01-18T08:08:46.882Z,3.30
2023-01-18T08:11:15.031Z,3.78
2023-01-18T08:13:44.328Z,4.05
2023-01-18T08:16:13.293Z,4.47
2023-01-18T08:18:41.635Z,4.28
2023-01-18T08:21:11.626Z,4.15
2023-01-18T08:23:40.184Z,3.63
2023-01-18T08:26:10.003Z,3.67
2023-01-18T08:28:38.243Z,3.60
2023-01-18T08:31:11.271Z,3.50
2023-01-18T08:33:41.070Z,3.20
2023-01-18T08:36:14.118Z,3.72
2023-01-18T08:38:47.907Z,4.05
2023-01-18T08:41:15.850Z,2.75
2023-01-18T08:43:44.122Z,2.92
2023-01-18T08:46:13.407Z,3.30
2023-01-18T08:48:41.893Z,2.72
2023-01-18T08:51:09.811Z,3.58
2023-01-18T08:53:37.736Z,3.60
2023-01-18T08:56:06.752Z,4.68
2023-01-18T08:58:34.987Z,4.55
2023-01-18T09:01:06.004Z,3.47
2023-01-18T09:03:36.194Z,4.00
2023-01-18T09:06:06.064Z,4.03
2023-01-18T09:08:33.980Z,4.28
2023-01-18T09:11:03.414Z,3.10
2023-01-18T09:13:31.377Z,3.25
2023-01-18T09:16:00.934Z,3.03
2023-01-18T09:18:29.995Z,3.60
2023-01-18T09:20:59.782Z,2.97
2023-01-18T09:23:27.792Z,3.13
2023-01-18T09:26:03.040Z,3.20
2023-01-18T09:28:31.191Z,2.70
2023-01-18T09:31:01.619Z,2.50
2023-01-18T09:33:37.530Z,3.00
2023-01-18T09:36:10.369Z,2.42
2023-01-18T09:38:39.527Z,2.90
2023-01-18T09:41:18.961Z,3.40
2023-01-18T09:43:51.084Z,3.55
2023-01-18T09:46:21.056Z,3.95
2023-01-18T09:48:54.809Z,4.45
2023-01-18T09:51:27.985Z,4.07
2023-01-18T09:54:11.764Z,3.63
2023-01-18T09:56:45.730Z,3.63
2023-01-18T09:59:22.308Z,2.88
2023-01-18T10:01:53.811Z,4.13
2023-01-18T10:04:30.035Z,3.75
2023-01-18T10:07:02.057Z,4.40
2023-01-18T10:09:39.841Z,3.88
2023-01-18T10:12:21.799Z,4.13
2023-01-18T10:14:54.249Z,5.40
2023-01-18T10:17:24.985Z,7.03
2023-01-18T10:19:53.150Z,4.25
2023-01-18T10:22:28.072Z,5.00
2023-01-18T10:25:03.398Z,4.93
2023-01-18T10:27:53.571Z,4.53
2023-01-18T10:30:56.675Z,3.70
2023-01-18T10:33:26.906Z,4.22
2023-01-18T10:36:03.195Z,4.20
2023-01-18T10:38:33.159Z,4.95
2023-01-18T10:41:02.777Z,3.53
2023-01-18T10:43:32.772Z,4.10
2023-01-18T10:46:00.905Z,3.63
2023-01-18T10:48:31.519Z,4.53
2023-01-18T10:51:01.058Z,5.10
2023-01-18T10:53:33.025Z,4.43
2023-01-18T10:56:04.743Z,4.63
2023-01-18T10:58:38.539Z,3.42
2023-01-18T11:01:06.934Z,3.33
2023-01-18T11:03:46.328Z,3.45
2023-01-18T11:06:16.994Z,5.13
2023-01-18T11:08:46.298Z,4.18
2023-01-18T11:11:20.096Z,4.07
2023-01-18T11:13:49.159Z,4.43
2023-01-18T11:16:21.835Z,3.65
2023-01-18T11:18:59.336Z,3.95
2023-01-18T11:21:31.565Z,5.93
2023-01-18T11:24:07.629Z,2.70
2023-01-18T11:26:35.787Z,4.45
2023-01-18T11:29:06.856Z,5.38
2023-01-18T11:31:46.215Z,4.22
2023-01-18T11:34:25.993Z,4.70
2023-01-18T11:36:54.066Z,5.15
2023-01-18T11:39:32.392Z,4.82
2023-01-18T11:42:21.535Z,4.72
2023-01-18T11:44:58.496Z,4.70
2023-01-18T11:47:32.352Z,2.50
2023-01-18T11:50:21.069Z,3.50
2023-01-18T11:52:53.028Z,4.60
2023-01-18T11:55:31.253Z,4.53
2023-01-18T11:58:00.808Z,6.28
2023-01-18T12:00:33.129Z,5.60
2023-01-18T12:03:27.398Z,4.18
2023-01-18T12:06:03.745Z,9.88
2023-01-18T12:08:54.901Z,5.97
2023-01-18T12:11:45.832Z,5.72
2023-01-18T12:14:29.464Z,4.68
2023-01-18T12:17:20.711Z,8.38
2023-01-18T12:20:00.460Z,6.93
2023-01-18T12:22:55.537Z,2.33
2023-01-18T12:25:47.026Z,5.72
2023-01-18T12:28:33.084Z,5.45
2023-01-18T12:31:15.870Z,5.43
2023-01-18T12:33:53.542Z,5.43
2023-01-18T12:36:41.237Z,8.40
2023-01-18T12:39:23.078Z,4.13
2023-01-18T12:41:58.355Z,7.45
2023-01-18T12:44:49.122Z,5.90
2023-01-18T12:47:36.045Z,5.93
2023-01-18T12:50:08.968Z,5.53
2023-01-18T12:52:43.847Z,5.22
2023-01-18T12:55:20.979Z,6.03
2023-01-18T12:57:52.196Z,6.35
2023-01-18T13:00:26.276Z,4.95
2023-01-18T13:02:57.959Z,2.13
2023-01-18T13:05:35.160Z,4.72
2023-01-18T13:08:09.102Z,4.25
2023-01-18T13:10:40.564Z,5.45
2023-01-18T13:13:13.101Z,4.90
2023-01-18T13:15:48.978Z,8.43
2023-01-18T13:18:24.137Z,7.72
2023-01-18T13:21:13.982Z,8.07
2023-01-18T13:23:53.667Z,7.68
2023-01-18T13:26:25.598Z,6.65
2023-01-18T13:29:25.710Z,9.85
2023-01-18T13:31:55.791Z,10.90
2023-01-18T13:34:29.810Z,9.00
2023-01-18T13:37:13.517Z,5.20
2023-01-18T13:39:47.102Z,5.40
2023-01-18T13:42:26.844Z,5.30
2023-01-18T13:45:18.246Z,7.55
2023-01-18T13:47:54.030Z,6.40
2023-01-18T13:50:42.264Z,4.72
2023-01-18T13:53:24.685Z,6.03
2023-01-18T13:56:29.353Z,6.32
2023-01-18T13:59:04.168Z,7.20
2023-01-18T14:01:36.296Z,6.00
2023-01-18T14:04:25.223Z,4.63
2023-01-18T14:06:54.698Z,8.20
2023-01-18T14:09:39.745Z,7.40
2023-01-18T14:12:08.524Z,6.72
2023-01-18T14:14:55.677Z,7.13
2023-01-18T14:17:25.610Z,6.28
2023-01-18T14:20:26.018Z,8.35
2023-01-18T14:23:07.890Z,6.85
2023-01-18T14:25:57.760Z,7.38
2023-01-18T14:28:31.574Z,5.65
2023-01-18T14:31:01.706Z,6.90
2023-01-18T14:33:34.629Z,6.35
2023-01-18T14:36:06.859Z,6.35
2023-01-18T14:38:34.893Z,7.78
2023-01-18T14:41:07.331Z,7.35
2023-01-18T14:43:42.630Z,7.13
2023-01-18T14:46:15.997Z,7.07
2023-01-18T14:48:51.430Z,6.40
2023-01-18T14:51:23.675Z,7.70
2023-01-18T14:53:54.582Z,7.30
2023-01-18T14:56:24.714Z,7.65
2023-01-18T14:58:54.825Z,8.15
2023-01-18T15:01:32.484Z,7.32
2023-01-18T15:04:02.346Z,6.38
2023-01-18T15:06:40.306Z,5.97
2023-01-18T15:09:09.996Z,7.43
2023-01-18T15:11:39.751Z,6.75
2023-01-18T15:14:11.317Z,7.05
2023-01-18T15:16:40.142Z,6.50
2023-01-18T15:19:14.567Z,7.22
2023-01-18T15:21:46.080Z,6.07
2023-01-18T15:24:18.431Z,7.25
2023-01-18T15:26:51.613Z,7.05
2023-01-18T15:29:21.296Z,7.38
2023-01-18T15:31:53.311Z,6.88
2023-01-18T15:34:28.246Z,7.28
2023-01-18T15:37:00.256Z,7.18
2023-01-18T15:39:28.263Z,6.25
2023-01-18T15:41:58.382Z,5.80
2023-01-18T15:44:40.710Z,8.30
2023-01-18T15:47:16.785Z,6.80
2023-01-18T15:49:46.774Z,7.97
2023-01-18T15:52:16.557Z,6.25
2023-01-18T15:54:44.618Z,5.97
2023-01-18T15:57:15.160Z,6.25
2023-01-18T15:59:43.722Z,6.32
2023-01-18T16:02:22.758Z,5.32
2023-01-18T16:05:08.157Z,5.38
2023-01-18T16:08:15.892Z,5.60
2023-01-18T16:10:50.706Z,6.35
2023-01-18T16:13:37.227Z,5.13
2023-01-18T16:16:17.134Z,5.60
2023-01-18T16:18:47.340Z,6.50
2023-01-18T16:21:32.647Z,5.00
2023-01-18T16:24:01.983Z,7.53
2023-01-18T16:26:31.486Z,9.60
2023-01-18T16:29:07.358Z,9.40
2023-01-18T16:31:36.509Z,12.15
2023-01-18T16:34:22.090Z,14.05
2023-01-18T16:36:51.364Z,14.10
2023-01-18T16:39:23.225Z,14.93
2023-01-18T16:41:57.904Z,14.20
2023-01-18T16:44:27.582Z,12.77
2023-01-18T16:46:55.898Z,12.30
2023-01-18T16:49:23.868Z,12.55
2023-01-18T16:51:51.842Z,11.52
2023-01-18T16:54:21.482Z,11.98
2023-01-18T16:56:50.152Z,11.07
2023-01-18T16:59:19.651Z,11.98
2023-01-18T17:01:47.809Z,8.55
2023-01-18T17:04:16.452Z,10.48
2023-01-18T17:06:45.312Z,8.35
2023-01-18T17:09:22.277Z,10.00
2023-01-18T17:11:51.311Z,11.65
2023-01-18T17:14:20.153Z,9.85
2023-01-18T17:16:49.674Z,16.25
2023-01-18T17:19:22.721Z,18.55
2023-01-18T17:21:51.911Z,12.20
2023-01-18T17:24:22.066Z,13.07
2023-01-18T17:26:50.573Z,11.55
2023-01-18T17:29:21.240Z,19.27
2023-01-18T17:31:52.503Z,15.23
2023-01-18T17:34:27.764Z,12.52
2023-01-18T17:36:58.824Z,11.10
2023-01-18T17:39:42.493Z,11.20
2023-01-18T17:42:16.407Z,16.10
2023-01-18T17:44:46.828Z,13.30
2023-01-18T17:47:15.565Z,13.20
2023-01-18T17:49:43.511Z,12.27
2023-01-18T17:52:11.893Z,12.27
2023-01-18T17:54:41.130Z,11.02
2023-01-18T17:57:09.134Z,13.23
2023-01-18T17:59:37.436Z,12.77
2023-01-18T18:02:05.409Z,10.88
2023-01-18T18:04:33.474Z,7.93
2023-01-18T18:07:01.446Z,8.48
2023-01-18T18:09:29.406Z,7.80
2023-01-18T18:11:58.690Z,7.40
2023-01-18T18:14:27.017Z,7.38
2023-01-18T18:16:54.973Z,9.23
2023-01-18T18:19:25.337Z,13.02
2023-01-18T18:21:55.426Z,11.25
2023-01-18T18:24:23.402Z,10.57
2023-01-18T18:26:51.519Z,8.07
2023-01-18T18:29:20.960Z,7.18
2023-01-18T18:31:48.913Z,7.80
2023-01-18T18:34:17.596Z,8.77
2023-01-18T18:36:45.542Z,6.35
2023-01-18T18:39:13.453Z,7.03
2023-01-18T18:41:43.875Z,6.60
2023-01-18T18:44:11.875Z,7.82
2023-01-18T18:46:41.258Z,7.32
2023-01-18T18:49:09.472Z,7.45
2023-01-18T18:51:37.459Z,6.78
2023-01-18T18:54:05.747Z,6.78
2023-01-18T18:56:34.046Z,6.78
2023-01-18T18:59:01.997Z,6.40
2023-01-18T19:01:30.655Z,6.88
2023-01-18T19:04:03.231Z,7.80
2023-01-18T19:06:31.219Z,9.52
2023-01-18T19:08:59.166Z,6.72
2023-01-18T19:11:27.251Z,6.70
2023-01-18T19:13:56.627Z,7.47
2023-01-18T19:16:24.870Z,7.78
2023-01-18T19:18:52.826Z,7.72
2023-01-18T19:21:22.107Z,6.43
2023-01-18T19:23:50.355Z,7.53
2023-01-18T19:26:18.912Z,7.97
2023-01-18T19:28:47.459Z,6.38
2023-01-18T19:31:15.627Z,7.75
2023-01-18T19:33:43.600Z,9.35
2023-01-18T19:36:14.152Z,6.95
2023-01-18T19:38:48.019Z,7.50
2023-01-18T19:41:20.202Z,7.05
2023-01-18T19:43:51.684Z,7.75
2023-01-18T19:46:20.184Z,8.20
2023-01-18T19:48:48.215Z,7.40
2023-01-18T19:51:22.271Z,8.25
2023-01-18T19:53:53.602Z,8.02
2023-01-18T19:56:21.630Z,7.82
2023-01-18T19:58:52.132Z,7.05
2023-01-18T20:01:35.129Z,8.35
2023-01-18T20:04:04.331Z,6.95
2023-01-18T20:06:32.291Z,10.95
2023-01-18T20:09:01.874Z,10.80
2023-01-18T20:11:30.714Z,10.75
2023-01-18T20:13:58.628Z,11.77
2023-01-18T20:16:26.660Z,10.80
2023-01-18T20:18:54.787Z,9.38
2023-01-18T20:21:22.714Z,11.23
2023-01-18T20:23:51.012Z,7.68
2023-01-18T20:26:34.892Z,8.68
2023-01-18T20:29:06.268Z,8.50
2023-01-18T20:31:35.854Z,9.30
2023-01-18T20:34:04.653Z,7.03
2023-01-18T20:36:34.666Z,8.85
2023-01-18T20:39:02.619Z,7.93
2023-01-18T20:41:31.975Z,8.40
2023-01-18T20:44:00.313Z,8.98
2023-01-18T20:46:28.352Z,9.20
2023-01-18T20:48:59.237Z,8.05
2023-01-18T20:51:27.272Z,8.73
2023-01-18T20:53:55.226Z,7.55
2023-01-18T20:56:29.174Z,7.97
2023-01-18T20:58:59.286Z,9.60
2023-01-18T21:01:32.034Z,8.63
2023-01-18T21:04:02.060Z,7.80
2023-01-18T21:06:30.324Z,9.48
2023-01-18T21:08:59.764Z,12.10
2023-01-18T21:11:28.306Z,8.55
2023-01-18T21:13:59.838Z,8.80
2023-01-18T21:16:28.514Z,8.80
2023-01-18T21:18:58.814Z,8.38
2023-01-18T21:21:29.243Z,9.65
2023-01-18T21:23:57.554Z,10.20
2023-01-18T21:26:25.502Z,10.05
2023-01-18T21:28:53.407Z,9.98
2023-01-18T21:31:23.004Z,9.70
2023-01-18T21:33:50.940Z,8.00
2023-01-18T21:36:20.027Z,9.07
2023-01-18T21:38:47.975Z,8.52
2023-01-18T21:41:33.926Z,10.48
2023-01-18T21:44:19.452Z,7.18
2023-01-18T21:46:53.618Z,9.07
2023-01-18T21:52:47.239Z,8.27
2023-01-18T21:55:16.569Z,8.80
2023-01-18T21:57:44.785Z,8.77
2023-01-18T22:00:13.708Z,9.20
2023-01-18T22:02:43.024Z,8.45
2023-01-18T22:05:13.036Z,8.88
2023-01-18T22:07:40.935Z,15.13
2023-01-18T22:10:10.114Z,9.25
2023-01-18T22:12:38.994Z,10.07
2023-01-18T22:15:07.872Z,11.57
2023-01-18T22:17:35.781Z,8.88
2023-01-18T22:20:05.700Z,8.50
2023-01-18T22:22:33.647Z,8.13
2023-01-18T22:25:02.197Z,8.77
2023-01-18T22:27:30.572Z,6.65
2023-01-18T22:30:00.430Z,8.65
2023-01-18T22:32:31.145Z,7.70
2023-01-18T22:34:59.281Z,8.05
2023-01-18T22:37:31.215Z,7.07
2023-01-18T22:39:59.122Z,13.20
2023-01-18T22:42:29.789Z,8.63
2023-01-18T22:44:57.947Z,9.02
2023-01-18T22:47:25.851Z,8.43
2023-01-18T22:49:54.042Z,8.25
2023-01-18T22:52:21.972Z,6.38
2023-01-18T22:54:54.365Z,7.22
2023-01-18T22:57:22.282Z,6.78
2023-01-18T22:59:50.229Z,8.20
2023-01-18T23:02:18.324Z,6.82
2023-01-18T23:04:50.965Z,6.20
2023-01-18T23:07:18.922Z,5.38
2023-01-18T23:09:46.848Z,7.68
2023-01-18T23:12:16.171Z,6.68
2023-01-18T23:15:01.757Z,6.53
2023-01-18T23:17:44.921Z,7.45
2023-01-18T23:20:14.846Z,6.13
2023-01-18T23:22:44.601Z,6.60
2023-01-18T23:25:12.574Z,4.90
2023-01-18T23:27:42.000Z,7.43
2023-01-18T23:30:11.531Z,6.00
2023-01-18T23:32:39.496Z,6.03
2023-01-18T23:35:08.532Z,5.43
2023-01-18T23:37:38.255Z,5.70
2023-01-18T23:40:25.298Z,8.68
2023-01-18T23:43:12.968Z,5.68
2023-01-18T23:45:58.594Z,6.65
2023-01-18T23:48:44.241Z,5.40
2023-01-18T23:51:29.869Z,5.53
2023-01-18T23:54:16.857Z,5.45
2023-01-18T23:56:45.776Z,4.85
2023-01-18T23:59:15.048Z,5.35
